West Hickory, Pennsylvania
Current Conditions -  °F | °C
As of 8:35 AM on Friday 24 Oct 2014 (Local Time) from KFKL Reporting Station
Overcast Overcast  
Wind Chill: 37°   Ceiling: 200
Heat Index: 41°   Visibility: 0mi
Dew Point: 37°   Wind: 6mph
Humidity: 87%   Direction: 230°SW
Pressure: 30.09"   Gusts: NA
Location:  41.57°N, 79.41°W
Report Text: KFKL 241235Z 23005KT M1/4SM OVC002 05/03 A3009 RMK AO1
Loading
Personal Weather Stations






























Interactive Weather Map
Tropical Storm Tracking
New forecast layout! Learn more

10-Day Weather Forecast

Advertisements
Track Severe Weather on mobile